createdAt,value
2023-07-23T00:00:39.313Z,3.60
2023-07-23T00:05:40.166Z,3.72
2023-07-23T00:10:40.983Z,3.58
2023-07-23T00:15:41.795Z,3.90
2023-07-23T00:20:42.603Z,3.40
2023-07-23T00:25:43.575Z,4.32
2023-07-23T00:30:44.355Z,3.70
2023-07-23T00:35:45.606Z,3.78
2023-07-23T00:40:46.413Z,3.60
2023-07-23T00:45:47.705Z,3.40
2023-07-23T00:50:48.720Z,3.62
2023-07-23T00:55:49.734Z,3.78
2023-07-23T01:00:50.956Z,3.67
2023-07-23T01:05:57.245Z,3.53
2023-07-23T01:10:58.741Z,3.80
2023-07-23T01:16:00.301Z,3.58
2023-07-23T01:21:01.298Z,3.47
2023-07-23T01:26:02.454Z,3.62
2023-07-23T01:31:03.493Z,4.55
2023-07-23T01:36:05.735Z,3.75
2023-07-23T01:41:06.602Z,3.87
2023-07-23T01:46:07.465Z,3.47
2023-07-23T01:51:09.904Z,3.75
2023-07-23T01:56:10.889Z,3.65
2023-07-23T02:01:11.952Z,3.42
2023-07-23T02:06:12.844Z,3.47
2023-07-23T02:11:13.763Z,3.78
2023-07-23T02:16:18.637Z,3.80
2023-07-23T02:21:19.733Z,4.30
2023-07-23T02:26:20.967Z,4.15
2023-07-23T02:31:21.843Z,4.12
2023-07-23T02:36:22.682Z,4.28
2023-07-23T02:41:23.726Z,3.92
2023-07-23T02:46:24.641Z,4.25
2023-07-23T02:51:25.553Z,4.20
2023-07-23T02:56:26.530Z,3.83
2023-07-23T03:01:27.722Z,3.58
2023-07-23T03:06:29.044Z,4.05
2023-07-23T03:11:30.277Z,3.60
2023-07-23T03:16:31.348Z,4.55
2023-07-23T03:21:32.143Z,3.90
2023-07-23T03:26:33.103Z,4.45
2023-07-23T03:31:33.944Z,3.72
2023-07-23T03:36:34.853Z,3.60
2023-07-23T03:41:35.629Z,4.07
2023-07-23T03:47:10.828Z,3.85
2023-07-23T03:52:12.200Z,3.97
2023-07-23T03:57:13.250Z,4.18
2023-07-23T04:02:14.131Z,3.75
2023-07-23T04:07:15.166Z,3.78
2023-07-23T04:12:15.940Z,3.80
2023-07-23T04:17:18.201Z,3.58
2023-07-23T04:22:19.885Z,4.15
2023-07-23T04:27:20.843Z,4.07
2023-07-23T04:32:21.766Z,4.00
2023-07-23T04:37:22.618Z,4.15
2023-07-23T04:42:23.516Z,4.07
2023-07-23T04:47:24.309Z,4.10
2023-07-23T04:52:25.134Z,4.22
2023-07-23T04:57:26.098Z,4.05
2023-07-23T05:02:26.922Z,3.78
2023-07-23T05:07:27.732Z,4.03
2023-07-23T05:12:28.728Z,3.72
2023-07-23T05:17:29.533Z,4.00
2023-07-23T05:22:33.111Z,3.60
2023-07-23T05:27:35.477Z,3.92
2023-07-23T05:32:36.319Z,3.78
2023-07-23T05:37:37.166Z,3.78
2023-07-23T05:42:37.938Z,3.53
2023-07-23T05:47:38.882Z,3.72
2023-07-23T05:52:39.704Z,4.20
2023-07-23T05:57:40.785Z,3.90
2023-07-23T06:02:41.627Z,4.10
2023-07-23T06:07:42.502Z,4.07
2023-07-23T06:12:43.274Z,3.47
2023-07-23T06:17:44.208Z,3.60
2023-07-23T06:22:45.076Z,3.95
2023-07-23T06:27:46.077Z,3.62
2023-07-23T06:32:46.894Z,4.07
2023-07-23T06:37:47.760Z,3.92
2023-07-23T06:42:49.263Z,4.43
2023-07-23T06:47:50.122Z,3.70
2023-07-23T06:52:51.006Z,3.85
2023-07-23T06:57:51.957Z,3.78
2023-07-23T07:02:52.755Z,4.12
2023-07-23T07:07:53.534Z,3.90
2023-07-23T07:12:54.358Z,3.53
2023-07-23T07:17:55.172Z,3.60
2023-07-23T07:22:56.026Z,3.58
2023-07-23T07:27:57.394Z,3.72
2023-07-23T07:32:58.229Z,3.05
2023-07-23T07:37:59.000Z,3.00
2023-07-23T07:42:59.874Z,2.95
2023-07-23T07:48:00.921Z,3.05
2023-07-23T07:53:01.923Z,2.58
2023-07-23T07:58:03.557Z,2.67
2023-07-23T08:03:05.159Z,2.55
2023-07-23T08:08:07.515Z,2.87
2023-07-23T08:13:10.051Z,2.67
2023-07-23T08:18:11.173Z,2.55
2023-07-23T08:23:12.815Z,2.45
2023-07-23T08:28:22.546Z,2.35
2023-07-23T08:33:28.282Z,2.60
2023-07-23T08:38:29.574Z,2.42
2023-07-23T08:44:04.957Z,2.20
2023-07-23T08:49:06.385Z,2.20
2023-07-23T08:54:08.697Z,2.47
2023-07-23T08:59:10.203Z,2.28
2023-07-23T09:04:12.655Z,2.45
2023-07-23T09:09:14.571Z,2.53
2023-07-23T09:14:16.859Z,2.28
2023-07-23T09:19:29.802Z,1.83
2023-07-23T09:29:38.787Z,1.85
2023-07-23T09:34:46.046Z,1.77
2023-07-23T09:39:47.246Z,1.95
2023-07-23T09:44:48.129Z,1.98
2023-07-23T09:49:50.686Z,2.05
2023-07-23T09:54:53.492Z,1.87
2023-07-23T09:59:57.716Z,1.67
2023-07-23T10:05:00.801Z,2.00
2023-07-23T10:10:01.867Z,2.12
2023-07-23T10:15:05.328Z,2.05
2023-07-23T10:20:12.140Z,2.20
2023-07-23T10:26:47.113Z,2.00
2023-07-23T10:31:48.064Z,2.37
2023-07-23T10:37:21.768Z,1.92
2023-07-23T10:42:43.576Z,1.60
2023-07-23T10:47:55.864Z,2.05
2023-07-23T10:53:15.969Z,2.05
2023-07-23T10:58:21.699Z,1.90
2023-07-23T11:03:24.588Z,2.30
2023-07-23T11:08:28.520Z,2.78
2023-07-23T11:13:32.864Z,2.80
2023-07-23T11:18:34.555Z,2.35
2023-07-23T11:23:35.951Z,2.50
2023-07-23T11:28:37.700Z,2.10
2023-07-23T11:33:38.608Z,1.90
2023-07-23T11:38:39.458Z,1.87
2023-07-23T11:43:41.676Z,1.70
2023-07-23T11:48:42.506Z,1.60
2023-07-23T11:53:43.348Z,2.03
2023-07-23T11:58:44.214Z,1.90
2023-07-23T12:03:46.765Z,1.85
2023-07-23T12:08:47.734Z,1.73
2023-07-23T12:13:56.851Z,1.70
2023-07-23T12:19:08.729Z,2.00
2023-07-23T12:24:27.119Z,1.80
2023-07-23T12:29:28.657Z,1.50
2023-07-23T12:34:30.130Z,1.48
2023-07-23T12:39:31.173Z,1.95
2023-07-23T12:44:32.026Z,1.85
2023-07-23T12:49:32.898Z,1.60
2023-07-23T12:54:34.677Z,1.40
2023-07-23T12:59:35.646Z,1.87
2023-07-23T13:04:43.864Z,1.87
2023-07-23T13:09:44.681Z,1.60
2023-07-23T13:14:45.493Z,1.58
2023-07-23T13:19:46.298Z,1.60
2023-07-23T13:24:47.122Z,1.60
2023-07-23T13:29:48.311Z,1.90
2023-07-23T13:34:50.176Z,2.30
2023-07-23T13:39:51.025Z,1.70
2023-07-23T13:44:51.821Z,1.85
2023-07-23T13:49:52.786Z,2.22
2023-07-23T13:54:53.970Z,2.60
2023-07-23T13:59:56.315Z,2.22
2023-07-23T14:04:58.991Z,2.08
2023-07-23T14:15:01.182Z,2.08
2023-07-23T14:20:04.992Z,2.12
2023-07-23T14:25:06.386Z,1.52
2023-07-23T14:30:08.261Z,1.40
2023-07-23T14:35:09.982Z,1.50
2023-07-23T14:40:11.579Z,1.85
2023-07-23T14:45:12.892Z,1.50
2023-07-23T14:50:13.672Z,1.62
2023-07-23T14:55:14.890Z,1.55
2023-07-23T15:00:15.996Z,1.60
2023-07-23T15:05:17.464Z,1.50
2023-07-23T15:10:19.374Z,1.70
2023-07-23T15:15:22.937Z,1.20
2023-07-23T15:20:24.260Z,1.90
2023-07-23T15:25:26.053Z,1.80
2023-07-23T15:30:26.978Z,1.70
2023-07-23T15:35:29.252Z,1.70
2023-07-23T15:40:30.128Z,1.62
2023-07-23T15:45:30.945Z,1.60
2023-07-23T15:50:31.741Z,1.62
2023-07-23T15:55:32.654Z,1.83
2023-07-23T16:00:33.498Z,2.00
2023-07-23T16:05:34.446Z,1.90
2023-07-23T16:10:35.275Z,1.77
2023-07-23T16:15:36.198Z,1.80
2023-07-23T16:20:37.016Z,1.98
2023-07-23T16:25:38.057Z,2.10
2023-07-23T16:30:38.858Z,1.70
2023-07-23T16:35:40.631Z,1.67
2023-07-23T16:40:45.015Z,1.70
2023-07-23T16:45:46.592Z,1.27
2023-07-23T16:50:47.528Z,1.17
2023-07-23T16:55:48.562Z,1.15
2023-07-23T17:00:49.378Z,1.30
2023-07-23T17:05:50.358Z,1.50
2023-07-23T17:10:54.307Z,1.30
2023-07-23T17:15:55.123Z,1.20
2023-07-23T17:20:55.941Z,1.83
2023-07-23T17:25:56.725Z,1.30
2023-07-23T17:30:59.856Z,1.37
2023-07-23T17:36:01.024Z,1.17
2023-07-23T17:41:01.912Z,1.45
2023-07-23T17:46:02.731Z,1.30
2023-07-23T17:51:03.717Z,1.37
2023-07-23T17:56:05.332Z,2.08
2023-07-23T18:01:19.711Z,1.15
2023-07-23T18:06:25.480Z,1.30
2023-07-23T18:11:27.081Z,1.33
2023-07-23T18:16:28.468Z,1.30
2023-07-23T18:21:29.532Z,1.77
2023-07-23T18:26:30.651Z,1.52
2023-07-23T18:31:35.945Z,1.40
2023-07-23T18:36:39.234Z,1.30
2023-07-23T18:41:40.376Z,1.40
2023-07-23T18:46:41.478Z,1.50
2023-07-23T18:51:42.359Z,1.45
2023-07-23T18:56:43.205Z,1.30
2023-07-23T19:01:44.073Z,1.52
2023-07-23T19:06:45.511Z,1.58
2023-07-23T19:11:46.344Z,1.35
2023-07-23T19:16:47.315Z,2.17
2023-07-23T19:21:48.104Z,1.75
2023-07-23T19:26:48.951Z,1.75
2023-07-23T19:31:49.747Z,1.55
2023-07-23T19:36:50.820Z,1.67
2023-07-23T19:41:52.220Z,1.50
2023-07-23T19:46:53.055Z,1.65
2023-07-23T19:51:53.824Z,1.60
2023-07-23T19:56:54.838Z,1.70
2023-07-23T20:01:56.900Z,1.35
2023-07-23T20:06:57.863Z,1.45
2023-07-23T20:12:01.047Z,1.52
2023-07-23T20:17:01.876Z,1.45
2023-07-23T20:22:02.939Z,1.37
2023-07-23T20:27:07.914Z,1.67
2023-07-23T20:32:10.231Z,1.62
2023-07-23T20:37:13.919Z,1.80
2023-07-23T20:42:15.143Z,1.98
2023-07-23T20:47:16.093Z,1.67
2023-07-23T20:52:16.935Z,1.70
2023-07-23T20:57:17.754Z,1.37
2023-07-23T21:02:18.534Z,1.58
2023-07-23T21:07:19.417Z,1.67
2023-07-23T21:12:20.399Z,1.80
2023-07-23T21:17:22.218Z,1.40
2023-07-23T21:22:23.086Z,1.80
2023-07-23T21:27:23.932Z,1.58
2023-07-23T21:32:24.820Z,1.70
2023-07-23T21:37:30.319Z,1.73
2023-07-23T21:42:31.138Z,1.50
2023-07-23T21:47:32.055Z,1.48
2023-07-23T21:52:32.873Z,1.73
2023-07-23T21:57:33.706Z,1.60
2023-07-23T22:02:34.881Z,1.80
2023-07-23T22:07:35.945Z,1.65
2023-07-23T22:12:36.741Z,1.58
2023-07-23T22:17:37.878Z,1.70
2023-07-23T22:22:38.747Z,1.87
2023-07-23T22:27:39.624Z,1.73
2023-07-23T22:32:40.604Z,1.67
2023-07-23T22:37:41.529Z,1.92
2023-07-23T22:42:42.702Z,2.47
2023-07-23T22:47:45.125Z,2.45
2023-07-23T22:52:46.045Z,1.65
2023-07-23T22:57:49.086Z,1.87
2023-07-23T23:02:50.831Z,1.92
2023-07-23T23:07:51.804Z,1.75
2023-07-23T23:12:52.639Z,1.60
2023-07-23T23:17:53.572Z,2.00
2023-07-23T23:22:54.478Z,1.67
2023-07-23T23:27:55.269Z,1.60
2023-07-23T23:32:56.161Z,1.77
2023-07-23T23:37:57.074Z,2.10
2023-07-23T23:42:58.084Z,1.80
2023-07-23T23:47:58.935Z,2.10
2023-07-23T23:52:59.791Z,2.17
2023-07-23T23:58:01.049Z,1.83
